sensor_id;sensor_type;location;lat;lon;timestamp;pressure;altitude;pressure_sealevel;temperature;humidity
64713;BME280;51140;45.340;5.980;2023-05-28T00:00:08;98066.03;;;17.61;70.35
64713;BME280;51140;45.340;5.980;2023-05-28T00:02:35;98064.16;;;17.62;69.46
64713;BME280;51140;45.340;5.980;2023-05-28T00:05:01;98067.69;;;17.40;69.24
64713;BME280;51140;45.340;5.980;2023-05-28T00:07:27;98065.34;;;17.47;68.09
64713;BME280;51140;45.340;5.980;2023-05-28T00:09:54;98063.41;;;17.79;69.39
64713;BME280;51140;45.340;5.980;2023-05-28T00:12:20;98070.09;;;17.50;70.33
64713;BME280;51140;45.340;5.980;2023-05-28T00:14:46;98072.16;;;17.53;68.53
64713;BME280;51140;45.340;5.980;2023-05-28T00:17:15;98066.53;;;17.55;69.09
64713;BME280;51140;45.340;5.980;2023-05-28T00:19:44;98070.22;;;17.06;70.21
64713;BME280;51140;45.340;5.980;2023-05-28T00:22:10;98065.56;;;17.20;71.05
64713;BME280;51140;45.340;5.980;2023-05-28T00:24:35;98070.50;;;17.04;70.48
64713;BME280;51140;45.340;5.980;2023-05-28T00:27:01;98063.44;;;17.48;69.12
64713;BME280;51140;45.340;5.980;2023-05-28T00:29:28;98060.84;;;17.65;66.76
64713;BME280;51140;45.340;5.980;2023-05-28T00:31:54;98061.63;;;17.26;69.61
64713;BME280;51140;45.340;5.980;2023-05-28T00:34:21;98068.81;;;17.48;70.58
64713;BME280;51140;45.340;5.980;2023-05-28T00:36:47;98081.06;;;17.62;68.38
64713;BME280;51140;45.340;5.980;2023-05-28T00:39:14;98076.00;;;17.69;69.18
64713;BME280;51140;45.340;5.980;2023-05-28T00:41:40;98080.56;;;16.99;71.21
64713;BME280;51140;45.340;5.980;2023-05-28T00:44:05;98073.47;;;17.25;69.56
64713;BME280;51140;45.340;5.980;2023-05-28T00:46:31;98081.50;;;17.25;68.45
64713;BME280;51140;45.340;5.980;2023-05-28T00:48:57;98083.41;;;17.25;69.47
64713;BME280;51140;45.340;5.980;2023-05-28T00:51:22;98095.44;;;17.36;68.95
64713;BME280;51140;45.340;5.980;2023-05-28T00:53:48;98086.16;;;17.42;69.36
64713;BME280;51140;45.340;5.980;2023-05-28T00:56:14;98098.13;;;17.36;69.28
64713;BME280;51140;45.340;5.980;2023-05-28T00:58:42;98093.06;;;17.34;69.06
64713;BME280;51140;45.340;5.980;2023-05-28T01:01:08;98095.00;;;17.11;70.15
64713;BME280;51140;45.340;5.980;2023-05-28T01:03:35;98095.28;;;16.79;70.86
64713;BME280;51140;45.340;5.980;2023-05-28T01:06:07;98097.94;;;16.79;71.27
64713;BME280;51140;45.340;5.980;2023-05-28T01:08:36;98093.25;;;16.63;71.90
64713;BME280;51140;45.340;5.980;2023-05-28T01:11:02;98099.09;;;16.65;71.03
64713;BME280;51140;45.340;5.980;2023-05-28T01:13:28;98096.56;;;16.59;71.25
64713;BME280;51140;45.340;5.980;2023-05-28T01:15:54;98109.75;;;16.56;71.42
64713;BME280;51140;45.340;5.980;2023-05-28T01:18:20;98097.97;;;16.43;71.95
64713;BME280;51140;45.340;5.980;2023-05-28T01:20:45;98094.19;;;16.44;72.08
64713;BME280;51140;45.340;5.980;2023-05-28T01:23:11;98093.94;;;16.32;71.98
64713;BME280;51140;45.340;5.980;2023-05-28T01:25:38;98093.47;;;16.52;70.77
64713;BME280;51140;45.340;5.980;2023-05-28T01:28:13;98093.19;;;16.54;71.12
64713;BME280;51140;45.340;5.980;2023-05-28T01:30:39;98096.69;;;16.54;70.78
64713;BME280;51140;45.340;5.980;2023-05-28T01:33:05;98091.00;;;16.56;71.28
64713;BME280;51140;45.340;5.980;2023-05-28T01:35:30;98087.53;;;16.55;70.43
64713;BME280;51140;45.340;5.980;2023-05-28T01:37:56;98084.75;;;16.47;70.61
64713;BME280;51140;45.340;5.980;2023-05-28T01:40:24;98093.81;;;16.37;71.71
64713;BME280;51140;45.340;5.980;2023-05-28T01:42:51;98089.88;;;16.35;72.12
64713;BME280;51140;45.340;5.980;2023-05-28T01:45:19;98098.13;;;16.47;72.96
64713;BME280;51140;45.340;5.980;2023-05-28T01:47:45;98096.69;;;16.41;70.81
64713;BME280;51140;45.340;5.980;2023-05-28T01:50:11;98106.41;;;16.37;72.09
64713;BME280;51140;45.340;5.980;2023-05-28T01:52:36;98101.47;;;16.30;70.86
64713;BME280;51140;45.340;5.980;2023-05-28T01:55:03;98100.78;;;16.25;71.07
64713;BME280;51140;45.340;5.980;2023-05-28T01:57:30;98101.78;;;16.29;72.30
64713;BME280;51140;45.340;5.980;2023-05-28T01:59:55;98098.59;;;16.27;72.02
64713;BME280;51140;45.340;5.980;2023-05-28T02:02:20;98100.31;;;16.23;72.08
64713;BME280;51140;45.340;5.980;2023-05-28T02:04:51;98091.34;;;16.27;71.03
64713;BME280;51140;45.340;5.980;2023-05-28T02:07:16;98102.06;;;16.27;71.19
64713;BME280;51140;45.340;5.980;2023-05-28T02:09:42;98094.75;;;16.19;71.74
64713;BME280;51140;45.340;5.980;2023-05-28T02:12:07;98093.59;;;16.12;72.27
64713;BME280;51140;45.340;5.980;2023-05-28T02:14:32;98090.00;;;16.16;72.27
64713;BME280;51140;45.340;5.980;2023-05-28T02:16:58;98094.38;;;16.12;71.45
64713;BME280;51140;45.340;5.980;2023-05-28T02:19:23;98086.88;;;16.00;72.20
64713;BME280;51140;45.340;5.980;2023-05-28T02:21:49;98088.88;;;15.95;73.92
64713;BME280;51140;45.340;5.980;2023-05-28T02:24:15;98092.47;;;16.13;73.17
64713;BME280;51140;45.340;5.980;2023-05-28T02:26:41;98095.03;;;16.31;72.26
64713;BME280;51140;45.340;5.980;2023-05-28T02:29:06;98097.72;;;16.31;73.60
64713;BME280;51140;45.340;5.980;2023-05-28T02:31:32;98099.41;;;16.27;71.91
64713;BME280;51140;45.340;5.980;2023-05-28T02:33:57;98100.00;;;16.24;72.65
64713;BME280;51140;45.340;5.980;2023-05-28T02:36:22;98093.78;;;16.15;72.52
64713;BME280;51140;45.340;5.980;2023-05-28T02:38:49;98094.53;;;16.29;72.04
64713;BME280;51140;45.340;5.980;2023-05-28T02:41:15;98091.63;;;15.90;73.24
64713;BME280;51140;45.340;5.980;2023-05-28T02:43:40;98094.75;;;16.19;72.69
64713;BME280;51140;45.340;5.980;2023-05-28T02:46:06;98096.53;;;16.24;73.04
64713;BME280;51140;45.340;5.980;2023-05-28T02:48:31;98095.72;;;16.37;73.35
64713;BME280;51140;45.340;5.980;2023-05-28T02:50:56;98095.47;;;16.61;73.15
64713;BME280;51140;45.340;5.980;2023-05-28T02:53:23;98094.44;;;16.34;71.72
64713;BME280;51140;45.340;5.980;2023-05-28T02:55:49;98092.34;;;16.31;71.82
64713;BME280;51140;45.340;5.980;2023-05-28T02:58:14;98098.34;;;16.15;73.32
64713;BME280;51140;45.340;5.980;2023-05-28T03:00:41;98107.41;;;16.54;72.74
64713;BME280;51140;45.340;5.980;2023-05-28T03:03:06;98093.47;;;16.52;70.26
64713;BME280;51140;45.340;5.980;2023-05-28T03:05:32;98110.09;;;16.27;71.60
64713;BME280;51140;45.340;5.980;2023-05-28T03:08:00;98110.97;;;16.00;73.64
64713;BME280;51140;45.340;5.980;2023-05-28T03:10:26;98112.66;;;15.96;74.02
64713;BME280;51140;45.340;5.980;2023-05-28T03:12:51;98111.44;;;16.02;73.25
64713;BME280;51140;45.340;5.980;2023-05-28T03:15:17;98108.69;;;15.94;74.37
64713;BME280;51140;45.340;5.980;2023-05-28T03:17:42;98109.09;;;15.74;75.13
64713;BME280;51140;45.340;5.980;2023-05-28T03:20:08;98111.56;;;15.84;74.25
64713;BME280;51140;45.340;5.980;2023-05-28T03:22:36;98109.88;;;15.74;75.13
64713;BME280;51140;45.340;5.980;2023-05-28T03:25:02;98108.00;;;15.88;74.62
64713;BME280;51140;45.340;5.980;2023-05-28T03:27:28;98099.75;;;15.85;75.28
64713;BME280;51140;45.340;5.980;2023-05-28T03:29:53;98102.84;;;15.92;75.06
64713;BME280;51140;45.340;5.980;2023-05-28T03:32:19;98104.69;;;16.05;73.61
64713;BME280;51140;45.340;5.980;2023-05-28T03:34:44;98100.72;;;16.16;74.47
64713;BME280;51140;45.340;5.980;2023-05-28T03:37:10;98092.56;;;16.21;74.04
64713;BME280;51140;45.340;5.980;2023-05-28T03:39:35;98095.06;;;16.18;74.07
64713;BME280;51140;45.340;5.980;2023-05-28T03:42:00;98100.06;;;15.83;75.40
64713;BME280;51140;45.340;5.980;2023-05-28T03:44:26;98098.34;;;16.15;73.45
64713;BME280;51140;45.340;5.980;2023-05-28T03:46:52;98099.56;;;15.95;73.89
64713;BME280;51140;45.340;5.980;2023-05-28T03:49:17;98106.00;;;15.67;73.98
64713;BME280;51140;45.340;5.980;2023-05-28T03:51:42;98100.25;;;15.87;74.33
64713;BME280;51140;45.340;5.980;2023-05-28T03:54:08;98102.63;;;16.02;74.05
64713;BME280;51140;45.340;5.980;2023-05-28T03:56:33;98104.38;;;16.20;72.62
64713;BME280;51140;45.340;5.980;2023-05-28T03:58:59;98109.94;;;16.10;73.37
64713;BME280;51140;45.340;5.980;2023-05-28T04:01:25;98113.84;;;15.63;76.39
64713;BME280;51140;45.340;5.980;2023-05-28T04:03:51;98111.34;;;16.08;74.30
64713;BME280;51140;45.340;5.980;2023-05-28T04:06:16;98111.78;;;16.37;73.54
64713;BME280;51140;45.340;5.980;2023-05-28T04:08:42;98112.50;;;16.29;74.33
64713;BME280;51140;45.340;5.980;2023-05-28T04:11:07;98118.19;;;16.14;73.65
64713;BME280;51140;45.340;5.980;2023-05-28T04:13:32;98127.28;;;16.26;73.92
64713;BME280;51140;45.340;5.980;2023-05-28T04:15:58;98128.41;;;16.47;73.73
64713;BME280;51140;45.340;5.980;2023-05-28T04:18:23;98119.63;;;16.33;74.31
64713;BME280;51140;45.340;5.980;2023-05-28T04:20:48;98114.41;;;16.01;74.07
64713;BME280;51140;45.340;5.980;2023-05-28T04:23:14;98117.63;;;16.39;73.91
64713;BME280;51140;45.340;5.980;2023-05-28T04:25:39;98123.47;;;16.54;72.93
64713;BME280;51140;45.340;5.980;2023-05-28T04:28:05;98128.47;;;16.70;72.95
64713;BME280;51140;45.340;5.980;2023-05-28T04:30:30;98128.84;;;16.77;71.63
64713;BME280;51140;45.340;5.980;2023-05-28T04:32:56;98131.63;;;16.36;74.31
64713;BME280;51140;45.340;5.980;2023-05-28T04:35:22;98128.72;;;15.96;75.07
64713;BME280;51140;45.340;5.980;2023-05-28T04:37:47;98129.63;;;15.92;74.56
64713;BME280;51140;45.340;5.980;2023-05-28T04:40:16;98125.53;;;16.08;75.65
64713;BME280;51140;45.340;5.980;2023-05-28T04:42:41;98125.50;;;16.22;74.11
64713;BME280;51140;45.340;5.980;2023-05-28T04:45:09;98122.56;;;15.96;74.54
64713;BME280;51140;45.340;5.980;2023-05-28T04:47:35;98126.91;;;16.06;74.30
64713;BME280;51140;45.340;5.980;2023-05-28T04:50:03;98120.34;;;16.25;73.29
64713;BME280;51140;45.340;5.980;2023-05-28T04:52:30;98123.09;;;16.34;73.02
64713;BME280;51140;45.340;5.980;2023-05-28T04:55:00;98125.25;;;16.45;73.30
64713;BME280;51140;45.340;5.980;2023-05-28T04:57:26;98128.13;;;16.85;72.75
64713;BME280;51140;45.340;5.980;2023-05-28T04:59:51;98136.31;;;16.52;73.08
64713;BME280;51140;45.340;5.980;2023-05-28T05:02:17;98134.56;;;16.62;73.04
64713;BME280;51140;45.340;5.980;2023-05-28T05:04:44;98135.84;;;16.01;74.57
64713;BME280;51140;45.340;5.980;2023-05-28T05:07:10;98139.22;;;15.93;76.05
64713;BME280;51140;45.340;5.980;2023-05-28T05:09:36;98136.25;;;15.81;75.71
64713;BME280;51140;45.340;5.980;2023-05-28T05:12:01;98135.56;;;15.89;75.70
64713;BME280;51140;45.340;5.980;2023-05-28T05:14:26;98125.53;;;15.94;76.22
64713;BME280;51140;45.340;5.980;2023-05-28T05:16:52;98135.22;;;16.04;75.86
64713;BME280;51140;45.340;5.980;2023-05-28T05:19:18;98133.63;;;16.30;75.45
64713;BME280;51140;45.340;5.980;2023-05-28T05:21:44;98124.28;;;16.55;73.59
64713;BME280;51140;45.340;5.980;2023-05-28T05:24:09;98131.88;;;16.62;74.56
64713;BME280;51140;45.340;5.980;2023-05-28T05:26:34;98128.41;;;17.05;74.60
64713;BME280;51140;45.340;5.980;2023-05-28T05:29:00;98132.06;;;17.32;72.57
64713;BME280;51140;45.340;5.980;2023-05-28T05:31:25;98129.94;;;17.51;72.96
64713;BME280;51140;45.340;5.980;2023-05-28T05:33:51;98122.91;;;17.63;71.36
64713;BME280;51140;45.340;5.980;2023-05-28T05:36:16;98119.59;;;17.66;72.45
64713;BME280;51140;45.340;5.980;2023-05-28T05:38:42;98128.09;;;17.60;71.39
64713;BME280;51140;45.340;5.980;2023-05-28T05:41:07;98111.22;;;17.59;72.70
64713;BME280;51140;45.340;5.980;2023-05-28T05:43:32;98119.69;;;18.01;71.32
64713;BME280;51140;45.340;5.980;2023-05-28T05:45:58;98117.34;;;18.08;70.19
64713;BME280;51140;45.340;5.980;2023-05-28T05:48:26;98123.06;;;18.15;67.82
64713;BME280;51140;45.340;5.980;2023-05-28T05:50:53;98119.56;;;17.97;71.19
64713;BME280;51140;45.340;5.980;2023-05-28T05:53:21;98121.63;;;18.09;70.45
64713;BME280;51140;45.340;5.980;2023-05-28T05:55:46;98122.34;;;17.53;72.12
64713;BME280;51140;45.340;5.980;2023-05-28T05:58:12;98114.69;;;17.60;71.64
64713;BME280;51140;45.340;5.980;2023-05-28T06:00:38;98118.69;;;17.80;71.59
64713;BME280;51140;45.340;5.980;2023-05-28T06:03:04;98113.53;;;17.92;70.40
64713;BME280;51140;45.340;5.980;2023-05-28T06:05:29;98117.63;;;17.89;72.16
64713;BME280;51140;45.340;5.980;2023-05-28T06:07:54;98117.41;;;17.68;71.65
64713;BME280;51140;45.340;5.980;2023-05-28T06:10:21;98126.06;;;17.65;71.38
64713;BME280;51140;45.340;5.980;2023-05-28T06:12:46;98126.50;;;17.28;71.63
64713;BME280;51140;45.340;5.980;2023-05-28T06:15:11;98125.50;;;17.24;71.10
64713;BME280;51140;45.340;5.980;2023-05-28T06:17:37;98120.75;;;17.21;72.70
64713;BME280;51140;45.340;5.980;2023-05-28T06:20:03;98117.38;;;17.07;73.21
64713;BME280;51140;45.340;5.980;2023-05-28T06:22:32;98115.31;;;17.04;73.10
64713;BME280;51140;45.340;5.980;2023-05-28T06:24:57;98113.00;;;16.89;72.64
64713;BME280;51140;45.340;5.980;2023-05-28T06:27:23;98111.72;;;17.08;72.66
64713;BME280;51140;45.340;5.980;2023-05-28T06:29:48;98115.25;;;17.17;73.16
64713;BME280;51140;45.340;5.980;2023-05-28T06:32:14;98105.31;;;17.49;70.45
64713;BME280;51140;45.340;5.980;2023-05-28T06:34:39;98107.66;;;17.50;69.38
64713;BME280;51140;45.340;5.980;2023-05-28T06:37:06;98111.09;;;17.42;70.53
64713;BME280;51140;45.340;5.980;2023-05-28T06:39:31;98104.47;;;17.09;72.20
64713;BME280;51140;45.340;5.980;2023-05-28T06:41:57;98106.09;;;17.49;70.24
64713;BME280;51140;45.340;5.980;2023-05-28T06:44:22;98110.06;;;17.52;71.11
64713;BME280;51140;45.340;5.980;2023-05-28T06:46:48;98099.13;;;17.48;71.73
64713;BME280;51140;45.340;5.980;2023-05-28T06:49:13;98108.06;;;17.35;72.43
64713;BME280;51140;45.340;5.980;2023-05-28T06:51:38;98095.38;;;17.49;71.83
64713;BME280;51140;45.340;5.980;2023-05-28T06:54:04;98091.03;;;17.40;71.69
64713;BME280;51140;45.340;5.980;2023-05-28T06:56:29;98089.78;;;17.77;70.86
64713;BME280;51140;45.340;5.980;2023-05-28T06:58:55;98087.06;;;17.68;71.26
64713;BME280;51140;45.340;5.980;2023-05-28T07:01:20;98093.88;;;17.65;71.52
64713;BME280;51140;45.340;5.980;2023-05-28T07:03:46;98089.72;;;17.59;71.78
64713;BME280;51140;45.340;5.980;2023-05-28T07:06:11;98087.94;;;17.86;71.05
64713;BME280;51140;45.340;5.980;2023-05-28T07:08:36;98077.88;;;20.08;63.75
64713;BME280;51140;45.340;5.980;2023-05-28T07:11:06;98083.22;;;22.04;56.66
64713;BME280;51140;45.340;5.980;2023-05-28T07:13:31;98081.44;;;21.15;59.17
64713;BME280;51140;45.340;5.980;2023-05-28T07:15:57;98078.16;;;20.15;62.11
64713;BME280;51140;45.340;5.980;2023-05-28T07:18:22;98081.88;;;21.74;57.35
64713;BME280;51140;45.340;5.980;2023-05-28T07:20:49;98083.16;;;24.02;51.28
64713;BME280;51140;45.340;5.980;2023-05-28T07:23:14;98078.88;;;25.13;47.08
64713;BME280;51140;45.340;5.980;2023-05-28T07:25:42;98082.31;;;25.74;45.00
64713;BME280;51140;45.340;5.980;2023-05-28T07:28:07;98082.53;;;25.92;44.62
64713;BME280;51140;45.340;5.980;2023-05-28T07:30:33;98080.16;;;27.02;42.41
64713;BME280;51140;45.340;5.980;2023-05-28T07:32:59;98073.28;;;27.56;41.77
64713;BME280;51140;45.340;5.980;2023-05-28T07:35:25;98076.63;;;27.82;40.96
64713;BME280;51140;45.340;5.980;2023-05-28T07:37:52;98067.00;;;28.64;39.17
64713;BME280;51140;45.340;5.980;2023-05-28T07:40:18;98071.59;;;27.92;40.53
64713;BME280;51140;45.340;5.980;2023-05-28T07:42:43;98065.50;;;28.88;38.22
64713;BME280;51140;45.340;5.980;2023-05-28T07:45:09;98066.78;;;29.68;37.17
64713;BME280;51140;45.340;5.980;2023-05-28T07:47:35;98058.97;;;29.63;36.52
64713;BME280;51140;45.340;5.980;2023-05-28T07:50:01;98055.75;;;30.32;35.73
64713;BME280;51140;45.340;5.980;2023-05-28T07:52:26;98060.56;;;29.54;36.51
64713;BME280;51140;45.340;5.980;2023-05-28T07:54:55;98061.19;;;28.76;37.49
64713;BME280;51140;45.340;5.980;2023-05-28T07:57:22;98058.22;;;29.91;35.27
64713;BME280;51140;45.340;5.980;2023-05-28T07:59:47;98044.78;;;30.46;35.05
64713;BME280;51140;45.340;5.980;2023-05-28T08:02:12;98043.25;;;30.45;35.12
64713;BME280;51140;45.340;5.980;2023-05-28T08:04:38;98046.16;;;30.89;34.09
64713;BME280;51140;45.340;5.980;2023-05-28T08:07:03;98038.22;;;30.12;34.73
64713;BME280;51140;45.340;5.980;2023-05-28T08:09:29;98036.63;;;30.21;35.46
64713;BME280;51140;45.340;5.980;2023-05-28T08:11:55;98038.28;;;29.62;36.27
64713;BME280;51140;45.340;5.980;2023-05-28T08:14:20;98038.53;;;30.35;35.87
64713;BME280;51140;45.340;5.980;2023-05-28T08:16:45;98037.84;;;30.10;36.06
64713;BME280;51140;45.340;5.980;2023-05-28T08:19:11;98027.59;;;30.42;35.12
64713;BME280;51140;45.340;5.980;2023-05-28T08:21:36;98038.25;;;29.34;37.26
64713;BME280;51140;45.340;5.980;2023-05-28T08:24:01;98035.72;;;30.63;35.66
64713;BME280;51140;45.340;5.980;2023-05-28T08:26:27;98021.47;;;30.89;35.69
64713;BME280;51140;45.340;5.980;2023-05-28T08:28:52;98021.53;;;31.41;33.39
64713;BME280;51140;45.340;5.980;2023-05-28T08:31:18;98021.06;;;29.90;34.01
64713;BME280;51140;45.340;5.980;2023-05-28T08:33:43;98025.75;;;29.75;37.43
64713;BME280;51140;45.340;5.980;2023-05-28T08:36:08;98015.84;;;30.34;35.71
64713;BME280;51140;45.340;5.980;2023-05-28T08:38:35;98005.84;;;30.86;34.42
64713;BME280;51140;45.340;5.980;2023-05-28T08:41:01;98012.88;;;29.79;33.71
64713;BME280;51140;45.340;5.980;2023-05-28T08:43:26;98013.56;;;30.15;36.33
64713;BME280;51140;45.340;5.980;2023-05-28T08:45:53;98012.78;;;30.15;37.34
64713;BME280;51140;45.340;5.980;2023-05-28T08:48:19;98002.63;;;30.15;36.77
64713;BME280;51140;45.340;5.980;2023-05-28T08:50:49;98001.94;;;29.62;38.86
64713;BME280;51140;45.340;5.980;2023-05-28T08:53:22;97998.00;;;29.77;36.19
64713;BME280;51140;45.340;5.980;2023-05-28T08:55:48;97993.75;;;29.65;38.21
64713;BME280;51140;45.340;5.980;2023-05-28T08:58:13;97989.94;;;28.23;43.90
64713;BME280;51140;45.340;5.980;2023-05-28T09:00:39;97995.00;;;27.56;42.79
64713;BME280;51140;45.340;5.980;2023-05-28T09:03:05;97986.88;;;28.42;37.74
64713;BME280;51140;45.340;5.980;2023-05-28T09:05:37;97975.75;;;28.00;41.94
64713;BME280;51140;45.340;5.980;2023-05-28T09:08:08;97978.56;;;28.04;40.28
64713;BME280;51140;45.340;5.980;2023-05-28T09:10:37;97977.09;;;28.24;39.41
64713;BME280;51140;45.340;5.980;2023-05-28T09:13:03;97970.47;;;28.32;40.91
64713;BME280;51140;45.340;5.980;2023-05-28T09:15:30;97979.88;;;27.18;45.72
64713;BME280;51140;45.340;5.980;2023-05-28T09:17:55;97976.03;;;27.77;38.53
64713;BME280;51140;45.340;5.980;2023-05-28T09:20:23;97974.50;;;27.76;42.99
64713;BME280;51140;45.340;5.980;2023-05-28T09:23:07;97968.16;;;27.11;40.21
64713;BME280;51140;45.340;5.980;2023-05-28T09:25:36;97967.34;;;27.58;40.99
64713;BME280;51140;45.340;5.980;2023-05-28T09:28:02;97963.75;;;27.47;42.49
64713;BME280;51140;45.340;5.980;2023-05-28T09:30:28;97951.50;;;27.74;42.88
64713;BME280;51140;45.340;5.980;2023-05-28T09:33:05;97950.66;;;28.56;44.30
64713;BME280;51140;45.340;5.980;2023-05-28T09:35:31;97946.22;;;28.09;46.01
64713;BME280;51140;45.340;5.980;2023-05-28T09:38:07;97943.66;;;27.72;40.09
64713;BME280;51140;45.340;5.980;2023-05-28T09:40:42;97947.47;;;27.57;38.19
64713;BME280;51140;45.340;5.980;2023-05-28T09:43:09;97939.09;;;27.94;38.76
64713;BME280;51140;45.340;5.980;2023-05-28T09:45:34;97938.97;;;27.69;40.67
64713;BME280;51140;45.340;5.980;2023-05-28T09:48:00;97939.41;;;27.20;47.61
64713;BME280;51140;45.340;5.980;2023-05-28T09:50:26;97935.66;;;27.39;43.24
64713;BME280;51140;45.340;5.980;2023-05-28T09:52:55;97943.41;;;27.34;45.76
64713;BME280;51140;45.340;5.980;2023-05-28T09:55:25;97939.19;;;28.05;40.47
64713;BME280;51140;45.340;5.980;2023-05-28T09:58:05;97934.47;;;28.02;45.58
64713;BME280;51140;45.340;5.980;2023-05-28T10:00:57;97937.13;;;27.91;41.17
64713;BME280;51140;45.340;5.980;2023-05-28T10:03:38;97934.78;;;27.90;44.21
64713;BME280;51140;45.340;5.980;2023-05-28T10:06:10;97935.44;;;27.11;38.43
64713;BME280;51140;45.340;5.980;2023-05-28T10:08:37;97924.19;;;27.70;42.30
64713;BME280;51140;45.340;5.980;2023-05-28T10:11:05;97930.38;;;27.64;45.10
64713;BME280;51140;45.340;5.980;2023-05-28T10:13:34;97919.66;;;27.99;39.66
64713;BME280;51140;45.340;5.980;2023-05-28T10:16:00;97920.38;;;27.27;37.90
64713;BME280;51140;45.340;5.980;2023-05-28T10:18:26;97910.56;;;27.70;36.74
64713;BME280;51140;45.340;5.980;2023-05-28T10:20:53;97914.06;;;27.74;42.00
64713;BME280;51140;45.340;5.980;2023-05-28T10:23:20;97912.38;;;27.52;39.27
64713;BME280;51140;45.340;5.980;2023-05-28T10:25:46;97900.66;;;28.24;41.14
64713;BME280;51140;45.340;5.980;2023-05-28T10:28:15;97895.97;;;28.21;46.15
64713;BME280;51140;45.340;5.980;2023-05-28T10:30:41;97896.81;;;28.39;42.85
64713;BME280;51140;45.340;5.980;2023-05-28T10:33:24;97894.69;;;27.25;39.34
64713;BME280;51140;45.340;5.980;2023-05-28T10:35:53;97901.84;;;28.30;44.10
64713;BME280;51140;45.340;5.980;2023-05-28T10:38:19;97890.56;;;28.46;38.75
64713;BME280;51140;45.340;5.980;2023-05-28T10:40:44;97880.63;;;27.92;41.39
64713;BME280;51140;45.340;5.980;2023-05-28T10:46:49;97880.78;;;28.34;41.76
64713;BME280;51140;45.340;5.980;2023-05-28T10:49:11;97883.06;;;28.07;40.92
64713;BME280;51140;45.340;5.980;2023-05-28T11:02:26;97845.50;;;27.72;44.11
64713;BME280;51140;45.340;5.980;2023-05-28T11:04:57;97837.69;;;27.74;43.74
64713;BME280;51140;45.340;5.980;2023-05-28T11:07:35;97840.97;;;28.12;41.85
64713;BME280;51140;45.340;5.980;2023-05-28T11:10:04;97842.19;;;28.39;43.19
64713;BME280;51140;45.340;5.980;2023-05-28T11:12:31;97834.34;;;28.20;45.74
64713;BME280;51140;45.340;5.980;2023-05-28T11:14:57;97831.41;;;27.56;40.94
64713;BME280;51140;45.340;5.980;2023-05-28T11:17:23;97818.91;;;27.52;43.26
64713;BME280;51140;45.340;5.980;2023-05-28T11:19:49;97822.03;;;27.54;44.32
64713;BME280;51140;45.340;5.980;2023-05-28T11:22:17;97824.78;;;27.61;42.92
64713;BME280;51140;45.340;5.980;2023-05-28T11:25:05;97819.59;;;27.38;44.89
64713;BME280;51140;45.340;5.980;2023-05-28T11:27:32;97811.47;;;26.84;40.97
64713;BME280;51140;45.340;5.980;2023-05-28T11:29:59;97806.41;;;27.44;45.76
64713;BME280;51140;45.340;5.980;2023-05-28T11:32:26;97802.53;;;27.52;42.92
64713;BME280;51140;45.340;5.980;2023-05-28T11:34:54;97800.63;;;27.56;41.22
64713;BME280;51140;45.340;5.980;2023-05-28T11:37:28;97807.28;;;27.69;47.39
64713;BME280;51140;45.340;5.980;2023-05-28T11:39:55;97801.09;;;27.75;46.48
64713;BME280;51140;45.340;5.980;2023-05-28T11:42:21;97793.75;;;27.94;42.28
64713;BME280;51140;45.340;5.980;2023-05-28T11:44:48;97792.56;;;27.88;41.21
64713;BME280;51140;45.340;5.980;2023-05-28T11:47:15;97787.06;;;27.80;43.70
64713;BME280;51140;45.340;5.980;2023-05-28T11:49:41;97782.03;;;27.93;40.77
64713;BME280;51140;45.340;5.980;2023-05-28T11:52:25;97771.19;;;28.14;41.99
64713;BME280;51140;45.340;5.980;2023-05-28T11:54:57;97776.25;;;28.37;43.75
64713;BME280;51140;45.340;5.980;2023-05-28T11:57:27;97768.47;;;28.18;42.13
64713;BME280;51140;45.340;5.980;2023-05-28T12:00:04;97770.81;;;28.16;41.79
64713;BME280;51140;45.340;5.980;2023-05-28T12:02:43;97767.31;;;28.19;38.36
64713;BME280;51140;45.340;5.980;2023-05-28T12:05:10;97772.63;;;27.80;40.29
64713;BME280;51140;45.340;5.980;2023-05-28T12:07:36;97763.81;;;28.36;38.63
64713;BME280;51140;45.340;5.980;2023-05-28T12:10:08;97757.56;;;28.11;40.66
64713;BME280;51140;45.340;5.980;2023-05-28T12:12:38;97759.50;;;28.14;40.33
64713;BME280;51140;45.340;5.980;2023-05-28T12:15:05;97763.75;;;28.11;35.18
64713;BME280;51140;45.340;5.980;2023-05-28T12:17:35;97759.00;;;27.83;40.12
64713;BME280;51140;45.340;5.980;2023-05-28T12:20:05;97752.81;;;27.94;38.41
64713;BME280;51140;45.340;5.980;2023-05-28T12:22:32;97754.72;;;27.75;42.62
64713;BME280;51140;45.340;5.980;2023-05-28T12:24:57;97754.31;;;27.66;38.61
64713;BME280;51140;45.340;5.980;2023-05-28T12:27:23;97745.75;;;27.78;40.27
64713;BME280;51140;45.340;5.980;2023-05-28T12:29:48;97744.22;;;27.92;41.53
64713;BME280;51140;45.340;5.980;2023-05-28T12:32:14;97746.13;;;27.77;42.58
64713;BME280;51140;45.340;5.980;2023-05-28T12:34:39;97739.00;;;27.41;41.45
64713;BME280;51140;45.340;5.980;2023-05-28T12:37:05;97754.22;;;27.42;43.86
64713;BME280;51140;45.340;5.980;2023-05-28T12:39:31;97746.72;;;27.24;48.69
64713;BME280;51140;45.340;5.980;2023-05-28T12:41:56;97739.19;;;26.97;43.75
64713;BME280;51140;45.340;5.980;2023-05-28T12:44:21;97742.22;;;26.81;46.41
64713;BME280;51140;45.340;5.980;2023-05-28T12:46:47;97739.09;;;26.32;49.91
64713;BME280;51140;45.340;5.980;2023-05-28T12:49:13;97725.44;;;26.25;53.68
64713;BME280;51140;45.340;5.980;2023-05-28T12:51:38;97715.66;;;26.67;54.29
64713;BME280;51140;45.340;5.980;2023-05-28T12:54:07;97711.72;;;27.30;51.42
64713;BME280;51140;45.340;5.980;2023-05-28T12:56:32;97701.28;;;27.50;42.79
64713;BME280;51140;45.340;5.980;2023-05-28T12:58:58;97692.75;;;27.58;43.07
64713;BME280;51140;45.340;5.980;2023-05-28T13:01:24;97691.22;;;27.68;44.76
64713;BME280;51140;45.340;5.980;2023-05-28T13:03:50;97688.09;;;27.80;46.78
64713;BME280;51140;45.340;5.980;2023-05-28T13:06:16;97681.88;;;27.76;39.24
64713;BME280;51140;45.340;5.980;2023-05-28T13:08:42;97687.31;;;27.83;40.71
64713;BME280;51140;45.340;5.980;2023-05-28T13:11:07;97683.81;;;27.86;43.75